Авиационная погода в аэропорту Балхаш

СКИДКИ НА СМАРТФОНЫ!

Регион: 
Погода METAR: 
UAAH 091130Z 21007MPS 9999 FEW048 26/11 Q1006 NOSIG RMK QFE716/0955
Время наблюдения
2022-08-09T11:30:00Z
Температура C
26.0
Точка росы
11.0
Направление ветра
210
Скорость ветра (узлы)
14
Метео видимость
6.21
Облачность
FEW
Нижняя граница облачности (футы)
4800
Явления погоды
Условия полета
VFR
Аэропорт подробнее: 
FEW – незначительная облачность;

Скидки на навигаторы!